createdAt,value
2022-08-20T00:02:10.577Z,17.00
2022-08-20T00:04:39.529Z,17.00
2022-08-20T00:07:07.328Z,17.00
2022-08-20T00:09:36.704Z,17.00
2022-08-20T00:12:05.830Z,17.00
2022-08-20T00:14:34.039Z,17.00
2022-08-20T00:17:01.978Z,17.00
2022-08-20T00:19:29.352Z,17.00
2022-08-20T00:21:58.095Z,17.00
2022-08-20T00:24:26.131Z,17.00
2022-08-20T00:26:53.362Z,17.00
2022-08-20T00:29:22.299Z,17.00
2022-08-20T00:31:50.568Z,17.00
2022-08-20T00:34:17.947Z,17.00
2022-08-20T00:36:45.206Z,17.00
2022-08-20T00:39:12.554Z,17.00
2022-08-20T00:41:39.850Z,17.00
2022-08-20T00:44:13.323Z,17.00
2022-08-20T00:46:40.754Z,17.00
2022-08-20T00:49:09.203Z,17.00
2022-08-20T00:51:45.219Z,17.00
2022-08-20T00:54:23.267Z,17.00
2022-08-20T00:56:55.923Z,17.10
2022-08-20T00:59:28.362Z,17.10
2022-08-20T01:01:56.689Z,17.10
2022-08-20T01:04:28.373Z,17.10
2022-08-20T01:06:55.665Z,17.10
2022-08-20T01:09:50.055Z,17.10
2022-08-20T01:12:10.571Z,17.10
2022-08-20T01:14:37.841Z,17.10
2022-08-20T01:17:07.612Z,17.00
2022-08-20T01:19:47.552Z,17.00
2022-08-20T01:22:36.090Z,17.00
2022-08-20T01:25:13.130Z,17.00
2022-08-20T01:27:42.605Z,17.00
2022-08-20T01:30:10.444Z,16.90
2022-08-20T01:32:37.671Z,16.90
2022-08-20T01:35:05.638Z,16.90
2022-08-20T01:37:32.846Z,16.90
2022-08-20T01:40:00.179Z,16.90
2022-08-20T01:42:33.047Z,16.90
2022-08-20T01:45:00.534Z,16.90
2022-08-20T01:47:31.509Z,16.80
2022-08-20T01:50:18.180Z,16.80
2022-08-20T01:53:14.714Z,16.80
2022-08-20T01:55:41.977Z,16.80
2022-08-20T01:58:09.295Z,16.80
2022-08-20T02:00:36.555Z,16.70
2022-08-20T02:03:04.356Z,16.70
2022-08-20T02:05:33.175Z,16.70
2022-08-20T02:08:00.554Z,16.70
2022-08-20T02:10:27.925Z,16.70
2022-08-20T02:13:00.166Z,16.70
2022-08-20T02:15:34.565Z,16.70
2022-08-20T02:18:10.204Z,16.60
2022-08-20T02:20:37.552Z,16.60
2022-08-20T02:23:04.971Z,16.60
2022-08-20T02:25:33.667Z,16.60
2022-08-20T02:28:02.450Z,16.60
2022-08-20T02:30:33.315Z,16.70
2022-08-20T02:33:01.834Z,16.60
2022-08-20T02:35:30.773Z,16.60
2022-08-20T02:37:58.502Z,16.60
2022-08-20T02:40:27.441Z,16.60
2022-08-20T02:43:00.854Z,16.60
2022-08-20T02:45:28.295Z,16.60
2022-08-20T02:47:57.144Z,16.60
2022-08-20T02:50:25.401Z,16.60
2022-08-20T02:52:52.638Z,16.60
2022-08-20T02:55:27.058Z,16.60
2022-08-20T02:57:59.966Z,16.60
2022-08-20T03:00:28.499Z,16.60
2022-08-20T03:02:56.427Z,16.60
2022-08-20T03:05:23.677Z,16.60
2022-08-20T03:07:56.385Z,16.60
2022-08-20T03:10:25.716Z,16.60
2022-08-20T03:12:52.976Z,16.60
2022-08-20T03:15:20.528Z,16.60
2022-08-20T03:17:48.028Z,16.60
2022-08-20T03:20:15.399Z,16.70
2022-08-20T03:22:42.690Z,16.60
2022-08-20T03:25:10.262Z,16.60
2022-08-20T03:27:37.722Z,16.60
2022-08-20T03:30:06.529Z,16.60
2022-08-20T03:32:34.036Z,16.60
2022-08-20T03:35:01.364Z,16.60
2022-08-20T03:37:32.342Z,16.70
2022-08-20T03:39:59.857Z,16.60
2022-08-20T03:42:27.297Z,16.60
2022-08-20T03:44:58.720Z,16.60
2022-08-20T03:47:27.090Z,16.60
2022-08-20T03:49:59.215Z,16.60
2022-08-20T03:52:29.244Z,16.60
2022-08-20T03:54:56.628Z,16.60
2022-08-20T03:57:24.072Z,16.60
2022-08-20T03:59:54.896Z,16.60
2022-08-20T04:02:25.902Z,16.60
2022-08-20T04:04:54.922Z,16.60
2022-08-20T04:07:25.876Z,16.50
2022-08-20T04:09:54.304Z,16.60
2022-08-20T04:12:22.408Z,16.60
2022-08-20T04:14:50.278Z,16.60
2022-08-20T04:17:18.389Z,16.60
2022-08-20T04:19:46.326Z,16.60
2022-08-20T04:22:13.765Z,16.50
2022-08-20T04:24:42.690Z,16.50
2022-08-20T04:27:10.351Z,16.60
2022-08-20T04:29:37.682Z,16.50
2022-08-20T04:32:06.197Z,16.50
2022-08-20T04:34:33.845Z,16.50
2022-08-20T04:37:01.095Z,16.50
2022-08-20T04:39:28.330Z,16.50
2022-08-20T04:41:55.565Z,16.50
2022-08-20T04:44:22.815Z,16.50
2022-08-20T04:46:50.137Z,16.50
2022-08-20T04:49:17.413Z,16.50
2022-08-20T04:51:44.653Z,16.50
2022-08-20T04:54:14.220Z,16.50
2022-08-20T04:56:41.449Z,16.50
2022-08-20T04:59:08.720Z,16.50
2022-08-20T05:01:36.126Z,16.60
2022-08-20T05:04:03.851Z,16.60
2022-08-20T05:06:31.452Z,16.60
2022-08-20T05:08:59.388Z,16.60
2022-08-20T05:11:33.467Z,16.60
2022-08-20T05:14:08.563Z,16.50
2022-08-20T05:16:39.684Z,16.50
2022-08-20T05:19:08.649Z,16.60
2022-08-20T05:21:36.362Z,16.60
2022-08-20T05:24:04.039Z,16.50
2022-08-20T05:26:31.220Z,16.60
2022-08-20T05:28:59.379Z,16.60
2022-08-20T05:31:30.980Z,16.60
2022-08-20T05:34:01.811Z,16.60
2022-08-20T05:36:29.061Z,16.70
2022-08-20T05:38:56.306Z,16.60
2022-08-20T05:41:29.079Z,16.60
2022-08-20T05:44:02.765Z,16.70
2022-08-20T05:46:33.103Z,16.70
2022-08-20T05:49:01.826Z,16.70
2022-08-20T05:51:29.710Z,16.70
2022-08-20T05:53:58.263Z,16.70
2022-08-20T05:56:30.302Z,16.70
2022-08-20T05:59:00.887Z,16.80
2022-08-20T06:01:28.244Z,16.70
2022-08-20T06:04:14.912Z,16.70
2022-08-20T06:06:46.060Z,16.70
2022-08-20T06:09:15.678Z,16.80
2022-08-20T06:11:43.044Z,16.80
2022-08-20T06:14:10.275Z,16.80
2022-08-20T06:16:37.638Z,16.80
2022-08-20T06:19:05.449Z,16.80
2022-08-20T06:21:32.758Z,16.80
2022-08-20T06:24:01.117Z,16.80
2022-08-20T06:26:29.832Z,16.90
2022-08-20T06:29:02.143Z,16.90
2022-08-20T06:31:29.465Z,17.00
2022-08-20T06:33:57.079Z,17.00
2022-08-20T06:36:24.920Z,17.10
2022-08-20T06:38:56.153Z,17.10
2022-08-20T06:41:23.383Z,17.10
2022-08-20T06:44:04.118Z,17.10
2022-08-20T06:46:32.187Z,17.10
2022-08-20T06:48:59.745Z,17.10
2022-08-20T06:51:27.055Z,17.10
2022-08-20T06:53:54.320Z,17.20
2022-08-20T06:56:21.598Z,17.20
2022-08-20T06:58:49.503Z,17.20
2022-08-20T07:01:21.156Z,17.20
2022-08-20T07:03:55.431Z,17.30
2022-08-20T07:06:25.537Z,17.40
2022-08-20T07:08:54.393Z,17.40
2022-08-20T07:11:27.382Z,17.40
2022-08-20T07:13:57.027Z,17.40
2022-08-20T07:16:24.527Z,17.50
2022-08-20T07:18:51.768Z,17.50
2022-08-20T07:21:19.040Z,17.60
2022-08-20T07:23:49.347Z,17.60
2022-08-20T07:26:17.353Z,17.60
2022-08-20T07:28:44.606Z,17.70
2022-08-20T07:31:31.403Z,17.70
2022-08-20T07:33:58.903Z,17.70
2022-08-20T07:36:27.251Z,17.80
2022-08-20T07:38:54.642Z,17.90
2022-08-20T07:41:24.350Z,17.90
2022-08-20T07:43:51.592Z,17.80
2022-08-20T07:46:20.761Z,17.90
2022-08-20T07:48:49.974Z,17.90
2022-08-20T07:51:22.326Z,18.00
2022-08-20T07:53:50.233Z,18.00
2022-08-20T07:56:19.964Z,18.00
2022-08-20T07:58:50.638Z,18.00
2022-08-20T08:01:20.051Z,18.00
2022-08-20T08:03:49.796Z,18.00
2022-08-20T08:06:29.699Z,18.00
2022-08-20T08:08:59.796Z,18.10
2022-08-20T08:11:27.094Z,18.10
2022-08-20T08:13:54.595Z,18.20
2022-08-20T08:16:21.864Z,18.20
2022-08-20T08:18:50.372Z,18.30
2022-08-20T08:21:18.362Z,18.20
2022-08-20T08:23:45.711Z,18.30
2022-08-20T08:26:16.178Z,18.30
2022-08-20T08:28:46.386Z,18.20
2022-08-20T08:31:14.054Z,18.10
2022-08-20T08:33:41.754Z,18.10
2022-08-20T08:36:11.214Z,18.10
2022-08-20T08:38:39.804Z,18.10
2022-08-20T08:41:25.812Z,18.10
2022-08-20T08:43:53.690Z,18.00
2022-08-20T08:46:26.202Z,18.00
2022-08-20T08:48:54.814Z,18.00
2022-08-20T08:51:48.547Z,18.00
2022-08-20T08:54:17.383Z,18.00
2022-08-20T08:56:49.975Z,18.00
2022-08-20T08:59:18.278Z,18.00
2022-08-20T09:01:54.368Z,18.10
2022-08-20T09:04:29.114Z,18.10
2022-08-20T09:06:56.359Z,18.10
2022-08-20T09:09:35.535Z,18.10
2022-08-20T09:12:14.184Z,18.10
2022-08-20T09:14:41.434Z,18.20
2022-08-20T09:17:08.673Z,18.20
2022-08-20T09:19:35.902Z,18.20
2022-08-20T09:22:10.044Z,18.30
2022-08-20T09:24:37.525Z,18.30
2022-08-20T09:27:04.954Z,18.40
2022-08-20T09:29:32.923Z,18.40
2022-08-20T09:32:26.998Z,18.40
2022-08-20T09:34:59.167Z,18.40
2022-08-20T09:37:29.263Z,18.50
2022-08-20T09:39:58.061Z,18.50
2022-08-20T09:42:28.185Z,18.50
2022-08-20T09:44:55.569Z,18.50
2022-08-20T09:47:23.098Z,18.60
2022-08-20T09:49:50.383Z,18.60
2022-08-20T09:52:22.136Z,18.70
2022-08-20T09:54:49.596Z,18.70
2022-08-20T09:57:17.504Z,18.70
2022-08-20T09:59:45.160Z,18.80
2022-08-20T10:02:12.414Z,18.90
2022-08-20T10:04:39.651Z,18.90
2022-08-20T10:07:08.727Z,19.00
2022-08-20T10:09:36.966Z,19.00
2022-08-20T10:12:04.818Z,19.00
2022-08-20T10:14:32.087Z,19.00
2022-08-20T10:17:00.083Z,18.90
2022-08-20T10:19:28.243Z,19.00
2022-08-20T10:21:55.552Z,19.00
2022-08-20T10:24:23.099Z,19.10
2022-08-20T10:26:50.447Z,19.10
2022-08-20T10:29:17.725Z,19.10
2022-08-20T10:31:44.964Z,19.10
2022-08-20T10:34:12.224Z,19.10
2022-08-20T10:36:39.515Z,19.10
2022-08-20T10:39:06.738Z,19.40
2022-08-20T10:41:38.354Z,19.40
2022-08-20T10:44:06.939Z,19.30
2022-08-20T10:46:34.226Z,19.30
2022-08-20T10:49:01.506Z,19.40
2022-08-20T10:51:32.256Z,19.30
2022-08-20T10:54:01.242Z,19.20
2022-08-20T10:56:28.488Z,19.20
2022-08-20T10:58:55.738Z,19.10
2022-08-20T11:01:31.433Z,19.10
2022-08-20T11:04:00.226Z,19.10
2022-08-20T11:06:27.443Z,19.30
2022-08-20T11:08:56.949Z,19.40
2022-08-20T11:11:24.498Z,19.60
2022-08-20T11:13:51.721Z,19.80
2022-08-20T11:16:18.975Z,20.00
2022-08-20T11:18:47.669Z,19.90
2022-08-20T11:21:15.283Z,20.00
2022-08-20T11:23:42.515Z,19.90
2022-08-20T11:26:20.766Z,20.00
2022-08-20T11:28:48.236Z,20.10
2022-08-20T11:31:15.496Z,20.10
2022-08-20T11:33:42.731Z,20.00
2022-08-20T11:36:09.997Z,20.00
2022-08-20T11:38:37.231Z,20.10
2022-08-20T11:41:04.501Z,20.30
2022-08-20T11:43:31.732Z,20.10
2022-08-20T11:45:58.978Z,19.90
2022-08-20T11:48:26.203Z,19.70
2022-08-20T11:50:53.487Z,19.70
2022-08-20T11:53:20.731Z,19.60
2022-08-20T11:55:49.521Z,19.70
2022-08-20T11:58:16.748Z,19.70
2022-08-20T12:00:43.993Z,19.70
2022-08-20T12:03:12.326Z,19.70
2022-08-20T12:05:40.994Z,19.60
2022-08-20T12:08:09.118Z,19.70
2022-08-20T12:10:37.127Z,19.70
2022-08-20T12:13:05.363Z,19.70
2022-08-20T12:15:34.166Z,19.80
2022-08-20T12:18:01.502Z,19.80
2022-08-20T12:20:28.749Z,19.90
2022-08-20T12:22:56.185Z,19.90
2022-08-20T12:25:23.575Z,20.10
2022-08-20T12:27:50.862Z,20.10
2022-08-20T12:30:20.733Z,20.00
2022-08-20T12:32:48.016Z,19.90
2022-08-20T12:35:15.863Z,19.90
2022-08-20T12:37:43.390Z,20.00
2022-08-20T12:40:15.695Z,20.00
2022-08-20T12:42:43.006Z,20.10
2022-08-20T12:45:10.720Z,20.10
2022-08-20T12:47:39.704Z,20.20
2022-08-20T12:50:13.824Z,20.10
2022-08-20T12:52:41.147Z,20.20
2022-08-20T12:55:09.310Z,20.30
2022-08-20T12:57:38.347Z,20.20
2022-08-20T13:00:11.548Z,20.20
2022-08-20T13:02:40.856Z,20.30
2022-08-20T13:05:12.043Z,20.30
2022-08-20T13:07:39.647Z,20.30
2022-08-20T13:10:07.871Z,20.20
2022-08-20T13:12:35.389Z,20.10
2022-08-20T13:15:02.744Z,20.10
2022-08-20T13:17:38.703Z,20.00
2022-08-20T13:20:08.025Z,20.00
2022-08-20T13:22:35.397Z,20.00
2022-08-20T13:25:02.822Z,20.10
2022-08-20T13:27:30.059Z,20.30
2022-08-20T13:29:58.820Z,20.40
2022-08-20T13:32:26.618Z,20.60
2022-08-20T13:34:53.934Z,20.80
2022-08-20T13:37:25.547Z,20.80
2022-08-20T13:39:54.284Z,21.10
2022-08-20T13:42:21.690Z,21.20
2022-08-20T13:44:49.014Z,21.20
2022-08-20T13:47:27.569Z,21.30
2022-08-20T13:49:59.612Z,21.30
2022-08-20T13:52:26.960Z,21.20
2022-08-20T13:54:54.402Z,20.90
2022-08-20T13:57:22.270Z,20.70
2022-08-20T13:59:50.999Z,19.50
2022-08-20T14:02:18.383Z,18.70
2022-08-20T14:04:45.987Z,18.60
2022-08-20T14:07:21.760Z,18.40
2022-08-20T14:09:56.884Z,18.30
2022-08-20T14:12:24.475Z,18.20
2022-08-20T14:14:52.174Z,18.10
2022-08-20T14:17:25.934Z,18.10
2022-08-20T14:20:00.674Z,18.30
2022-08-20T14:22:28.726Z,18.20
2022-08-20T14:24:56.491Z,18.30
2022-08-20T14:27:29.082Z,18.20
2022-08-20T14:29:58.398Z,18.10
2022-08-20T14:32:26.260Z,18.10
2022-08-20T14:34:54.218Z,18.20
2022-08-20T14:37:26.682Z,18.20
2022-08-20T14:39:55.064Z,18.40
2022-08-20T14:42:22.930Z,18.40
2022-08-20T14:44:50.853Z,18.50
2022-08-20T14:47:38.278Z,18.70
2022-08-20T14:50:08.642Z,19.00
2022-08-20T14:52:36.734Z,19.00
2022-08-20T14:55:05.023Z,19.10
2022-08-20T14:57:32.495Z,19.10
2022-08-20T14:59:59.792Z,19.00
2022-08-20T15:02:27.014Z,18.90
2022-08-20T15:04:55.748Z,18.90
2022-08-20T15:07:30.953Z,18.80
2022-08-20T15:09:58.334Z,18.80
2022-08-20T15:12:25.562Z,18.80
2022-08-20T15:14:52.790Z,18.80
2022-08-20T15:17:21.635Z,18.70
2022-08-20T15:19:48.947Z,18.70
2022-08-20T15:22:16.493Z,18.80
2022-08-20T15:24:43.715Z,18.80
2022-08-20T15:27:22.483Z,18.70
2022-08-20T15:29:51.009Z,18.50
2022-08-20T15:32:18.585Z,18.00
2022-08-20T15:34:45.948Z,17.50
2022-08-20T15:37:15.072Z,17.10
2022-08-20T15:39:45.462Z,16.90
2022-08-20T15:42:15.938Z,16.80
2022-08-20T15:44:43.436Z,16.70
2022-08-20T15:47:19.826Z,16.70
2022-08-20T15:49:47.576Z,16.70
2022-08-20T15:52:14.981Z,16.80
2022-08-20T15:54:42.225Z,16.80
2022-08-20T15:57:13.936Z,16.80
2022-08-20T16:00:04.035Z,16.70
2022-08-20T16:02:51.928Z,16.80
2022-08-20T16:06:03.949Z,16.80
2022-08-20T16:08:35.444Z,16.80
2022-08-20T16:11:22.087Z,16.80
2022-08-20T16:13:57.489Z,16.90
2022-08-20T16:16:42.163Z,16.90
2022-08-20T16:19:12.043Z,16.80
2022-08-20T16:21:40.796Z,16.90
2022-08-20T16:24:08.175Z,16.90
2022-08-20T16:26:43.602Z,16.90
2022-08-20T16:29:19.827Z,16.90
2022-08-20T16:32:00.367Z,16.90
2022-08-20T16:34:40.742Z,16.90
2022-08-20T16:37:44.856Z,16.90
2022-08-20T16:40:34.408Z,16.80
2022-08-20T16:43:04.740Z,16.90
2022-08-20T16:45:50.887Z,16.90
2022-08-20T16:48:18.663Z,16.90
2022-08-20T16:50:58.358Z,16.90
2022-08-20T16:53:25.903Z,17.00
2022-08-20T16:55:53.623Z,17.00
2022-08-20T16:58:20.859Z,17.00
2022-08-20T17:00:48.335Z,17.00
2022-08-20T17:03:38.603Z,17.10
2022-08-20T17:06:36.099Z,17.10
2022-08-20T17:09:11.104Z,17.10
2022-08-20T17:11:38.467Z,17.10
2022-08-20T17:14:13.920Z,17.10
2022-08-20T17:16:49.003Z,17.10
2022-08-20T17:19:34.313Z,17.10
2022-08-20T17:22:11.923Z,17.10
2022-08-20T17:24:40.122Z,17.10
2022-08-20T17:27:14.987Z,17.20
2022-08-20T17:29:49.318Z,17.20
2022-08-20T17:32:18.501Z,17.20
2022-08-20T17:34:53.784Z,17.30
2022-08-20T17:37:35.789Z,17.40
2022-08-20T17:40:24.532Z,17.40
2022-08-20T17:42:53.511Z,17.40
2022-08-20T17:45:26.349Z,17.40
2022-08-20T17:47:53.804Z,17.50
2022-08-20T17:50:24.077Z,17.50
2022-08-20T17:52:54.864Z,17.50
2022-08-20T17:55:22.208Z,17.50
2022-08-20T17:57:52.597Z,17.60
2022-08-20T18:00:25.991Z,17.50
2022-08-20T18:02:55.043Z,17.50
2022-08-20T18:05:22.497Z,17.50
2022-08-20T18:08:08.741Z,17.50
2022-08-20T18:10:42.647Z,17.50
2022-08-20T18:13:19.183Z,17.50
2022-08-20T18:15:57.076Z,17.50
2022-08-20T18:18:52.929Z,17.50
2022-08-20T18:21:33.503Z,17.50
2022-08-20T18:24:06.083Z,17.40
2022-08-20T18:26:43.194Z,17.40
2022-08-20T18:29:13.027Z,17.40
2022-08-20T18:31:50.705Z,17.40
2022-08-20T18:34:33.934Z,17.40
2022-08-20T18:37:06.587Z,17.40
2022-08-20T18:39:36.059Z,17.40
2022-08-20T18:42:03.383Z,17.50
2022-08-20T18:44:41.855Z,17.40
2022-08-20T18:47:27.888Z,17.40
2022-08-20T18:50:06.530Z,17.40
2022-08-20T18:52:51.507Z,17.40
2022-08-20T18:55:36.875Z,17.40
2022-08-20T18:58:08.955Z,17.30
2022-08-20T19:00:44.488Z,17.30
2022-08-20T19:03:35.908Z,17.30
2022-08-20T19:06:06.050Z,17.30
2022-08-20T19:08:53.632Z,17.20
2022-08-20T19:11:46.935Z,17.30
2022-08-20T19:14:26.761Z,17.20
2022-08-20T19:17:33.147Z,17.20
2022-08-20T19:20:01.373Z,17.20
2022-08-20T19:22:28.684Z,17.20
2022-08-20T19:24:58.442Z,17.10
2022-08-20T19:27:26.994Z,17.10
2022-08-20T19:29:57.138Z,17.10
2022-08-20T19:32:29.163Z,17.10
2022-08-20T19:34:58.264Z,17.10
2022-08-20T19:37:38.512Z,17.10
2022-08-20T19:40:39.351Z,17.10
2022-08-20T19:43:12.343Z,17.10
2022-08-20T19:45:41.511Z,17.10
2022-08-20T19:48:30.515Z,17.10
2022-08-20T19:51:00.619Z,17.10
2022-08-20T19:53:32.779Z,17.00
2022-08-20T19:56:05.972Z,17.00
2022-08-20T19:58:33.598Z,17.00
2022-08-20T20:01:01.676Z,17.00
2022-08-20T20:03:37.740Z,16.90
2022-08-20T20:06:17.537Z,16.90
2022-08-20T20:08:51.681Z,17.00
2022-08-20T20:11:20.403Z,16.90
2022-08-20T20:13:47.630Z,16.90
2022-08-20T20:16:17.214Z,16.90
2022-08-20T20:18:44.439Z,16.90
2022-08-20T20:21:22.006Z,16.90
2022-08-20T20:23:59.289Z,16.80
2022-08-20T20:26:34.299Z,16.80
2022-08-20T20:29:12.621Z,16.80
2022-08-20T20:31:49.775Z,16.80
2022-08-20T20:34:18.437Z,16.80
2022-08-20T20:36:46.979Z,16.80
2022-08-20T20:39:35.129Z,16.80
2022-08-20T20:42:04.326Z,16.80
2022-08-20T20:44:37.602Z,16.80
2022-08-20T20:47:17.412Z,16.80
2022-08-20T20:49:56.239Z,16.80
2022-08-20T20:52:30.873Z,16.70
2022-08-20T20:55:09.140Z,16.80
2022-08-20T20:57:38.582Z,16.70
2022-08-20T21:00:13.083Z,16.70
2022-08-20T21:02:40.680Z,16.70
2022-08-20T21:05:08.291Z,16.70
2022-08-20T21:07:43.665Z,16.80
2022-08-20T21:10:10.908Z,16.80
2022-08-20T21:12:38.202Z,16.80
2022-08-20T21:15:05.856Z,16.90
2022-08-20T21:17:33.211Z,16.90
2022-08-20T21:20:01.776Z,16.80
2022-08-20T21:22:29.048Z,16.80
2022-08-20T21:24:56.278Z,16.80
2022-08-20T21:27:25.703Z,16.80
2022-08-20T21:29:53.090Z,16.80
2022-08-20T21:32:21.131Z,16.80
2022-08-20T21:34:48.759Z,16.80
2022-08-20T21:37:16.303Z,16.80
2022-08-20T21:39:43.687Z,16.80
2022-08-20T21:42:21.066Z,16.70
2022-08-20T21:44:56.332Z,16.70
2022-08-20T21:47:23.479Z,16.70
2022-08-20T21:49:50.707Z,16.70
2022-08-20T21:52:18.786Z,16.70
2022-08-20T21:54:46.044Z,16.70
2022-08-20T21:57:29.766Z,16.70
2022-08-20T21:59:57.607Z,16.70
2022-08-20T22:02:26.009Z,16.70
2022-08-20T22:04:53.870Z,16.70
2022-08-20T22:07:21.363Z,16.70
2022-08-20T22:09:48.623Z,16.70
2022-08-20T22:12:18.774Z,16.70
2022-08-20T22:14:46.158Z,16.70
2022-08-20T22:17:13.799Z,16.70
2022-08-20T22:19:41.068Z,16.70
2022-08-20T22:22:11.607Z,16.70
2022-08-20T22:24:39.941Z,16.70
2022-08-20T22:27:07.257Z,16.70
2022-08-20T22:29:34.508Z,16.70
2022-08-20T22:32:01.770Z,16.80
2022-08-20T22:34:30.404Z,16.80
2022-08-20T22:36:57.665Z,16.80
2022-08-20T22:39:24.913Z,16.80
2022-08-20T22:41:52.189Z,16.80
2022-08-20T22:44:19.445Z,16.70
2022-08-20T22:46:48.947Z,16.70
2022-08-20T22:49:19.086Z,16.70
2022-08-20T22:51:46.290Z,16.60
2022-08-20T22:54:16.390Z,16.60
2022-08-20T22:56:43.584Z,16.60
2022-08-20T22:59:11.034Z,16.60
2022-08-20T23:01:38.405Z,16.60
2022-08-20T23:04:17.322Z,16.60
2022-08-20T23:06:44.583Z,16.50
2022-08-20T23:09:12.870Z,16.50
2022-08-20T23:11:40.652Z,16.50
2022-08-20T23:14:07.892Z,16.50
2022-08-20T23:16:35.480Z,16.50
2022-08-20T23:19:02.707Z,16.50
2022-08-20T23:21:29.964Z,16.50
2022-08-20T23:23:57.174Z,16.40
2022-08-20T23:26:24.970Z,16.40
2022-08-20T23:28:52.205Z,16.40
2022-08-20T23:31:19.484Z,16.40
2022-08-20T23:33:46.848Z,16.40
2022-08-20T23:36:14.116Z,16.40
2022-08-20T23:38:41.922Z,16.40
2022-08-20T23:41:09.127Z,16.30
2022-08-20T23:43:37.308Z,16.30
2022-08-20T23:46:05.387Z,16.30
2022-08-20T23:48:32.638Z,16.30
2022-08-20T23:50:59.851Z,16.30
2022-08-20T23:53:27.167Z,16.30
2022-08-20T23:55:54.379Z,16.20
2022-08-20T23:58:22.167Z,16.20
